createdAt,value
2019-05-06T00:02:24.543Z,6.90
2019-05-06T00:08:27.017Z,6.80
2019-05-06T00:14:29.310Z,6.80
2019-05-06T00:20:31.706Z,6.80
2019-05-06T00:26:56.926Z,6.80
2019-05-06T00:32:57.440Z,6.80
2019-05-06T00:39:01.667Z,6.60
2019-05-06T00:45:05.577Z,6.60
2019-05-06T00:51:07.910Z,6.70
2019-05-06T00:57:10.103Z,6.60
2019-05-06T01:03:14.090Z,6.60
2019-05-06T01:09:20.975Z,6.50
2019-05-06T01:15:25.173Z,6.40
2019-05-06T01:21:28.233Z,6.40
2019-05-06T01:27:30.459Z,6.40
2019-05-06T01:33:34.964Z,6.40
2019-05-06T01:39:58.501Z,6.40
2019-05-06T01:46:00.829Z,6.40
2019-05-06T01:52:04.075Z,6.40
2019-05-06T01:58:06.518Z,6.40
2019-05-06T02:04:08.840Z,6.40
2019-05-06T02:10:11.591Z,6.30
2019-05-06T02:16:14.641Z,6.40
2019-05-06T02:22:21.615Z,6.40
2019-05-06T02:28:24.151Z,6.30
2019-05-06T02:34:36.393Z,6.30
2019-05-06T02:40:42.634Z,6.40
2019-05-06T02:46:45.822Z,6.20
2019-05-06T02:52:48.450Z,6.20
2019-05-06T02:58:53.457Z,6.20
2019-05-06T03:04:54.836Z,6.10
2019-05-06T03:10:57.025Z,6.10
2019-05-06T03:16:59.522Z,6.10
2019-05-06T03:23:06.416Z,6.10
2019-05-06T03:29:08.597Z,6.10
2019-05-06T03:35:31.530Z,6.10
2019-05-06T03:41:16.073Z,6.20
2019-05-06T03:47:35.480Z,6.10
2019-05-06T03:53:37.687Z,6.10
2019-05-06T03:59:43.423Z,6.10
2019-05-06T04:05:45.069Z,6.10
2019-05-06T04:11:48.068Z,6.10
2019-05-06T04:17:53.844Z,6.00
2019-05-06T04:23:58.875Z,6.00
2019-05-06T04:30:04.324Z,6.00
2019-05-06T04:36:09.006Z,6.10
2019-05-06T04:42:13.749Z,6.20
2019-05-06T04:48:15.753Z,6.30
2019-05-06T04:54:26.208Z,6.40
2019-05-06T05:00:24.214Z,6.50
2019-05-06T05:06:27.807Z,6.70
2019-05-06T05:12:38.379Z,6.90
2019-05-06T05:18:45.590Z,6.90
2019-05-06T05:24:52.112Z,7.00
2019-05-06T05:30:55.571Z,7.20
2019-05-06T05:36:59.302Z,7.50
2019-05-06T05:43:23.639Z,7.90
2019-05-06T05:49:32.488Z,8.30
2019-05-06T05:55:34.943Z,8.60
2019-05-06T06:01:37.350Z,8.60
2019-05-06T06:07:39.641Z,8.90
2019-05-06T06:13:43.789Z,9.40
2019-05-06T06:20:02.618Z,9.80
2019-05-06T06:26:05.472Z,10.00
2019-05-06T06:32:13.797Z,10.70
2019-05-06T06:38:35.000Z,11.70
2019-05-06T06:44:57.793Z,12.60
2019-05-06T06:51:03.319Z,13.70
2019-05-06T06:57:09.905Z,14.60
2019-05-06T07:03:29.454Z,14.90
2019-05-06T07:09:41.942Z,15.00
2019-05-06T07:15:45.375Z,14.90
2019-05-06T07:21:53.525Z,14.50
2019-05-06T07:27:56.364Z,14.60
2019-05-06T07:33:59.005Z,15.30
2019-05-06T07:40:03.022Z,16.20
2019-05-06T07:46:16.720Z,16.10
2019-05-06T07:52:20.028Z,15.90
2019-05-06T07:58:25.773Z,15.40
2019-05-06T08:04:28.136Z,14.40
2019-05-06T08:10:32.917Z,13.00
2019-05-06T08:16:38.462Z,11.90
2019-05-06T08:22:48.243Z,11.70
2019-05-06T08:28:52.712Z,11.60
2019-05-06T08:34:54.930Z,11.40
2019-05-06T08:40:57.220Z,11.10
2019-05-06T08:47:02.641Z,10.70
2019-05-06T08:53:18.622Z,10.60
2019-05-06T08:59:20.838Z,10.60
2019-05-06T09:05:26.308Z,10.70
2019-05-06T09:11:29.327Z,11.10
2019-05-06T09:17:33.037Z,11.60
2019-05-06T09:23:35.531Z,11.40
2019-05-06T09:29:43.029Z,11.20
2019-05-06T09:35:46.033Z,11.20
2019-05-06T09:41:49.496Z,11.10
2019-05-06T09:47:54.349Z,11.20
2019-05-06T09:54:05.370Z,11.30
2019-05-06T10:00:08.017Z,11.20
2019-05-06T10:06:10.326Z,11.00
2019-05-06T10:12:12.858Z,10.70
2019-05-06T10:18:15.817Z,10.50
2019-05-06T10:24:18.210Z,10.60
2019-05-06T10:30:22.535Z,11.20
2019-05-06T10:36:32.445Z,12.20
2019-05-06T10:42:39.874Z,13.70
2019-05-06T10:48:43.743Z,14.80
2019-05-06T10:54:46.457Z,14.50
2019-05-06T11:00:52.875Z,13.50
2019-05-06T11:06:55.669Z,12.70
2019-05-06T11:12:58.005Z,12.50
2019-05-06T11:19:02.095Z,13.00
2019-05-06T11:25:04.873Z,13.00
2019-05-06T11:31:09.397Z,12.70
2019-05-06T11:37:18.981Z,12.40
2019-05-06T11:43:22.730Z,12.30
2019-05-06T11:49:28.695Z,12.60
2019-05-06T11:55:38.562Z,13.20
2019-05-06T12:01:39.184Z,14.00
2019-05-06T12:07:44.888Z,13.80
2019-05-06T12:13:45.796Z,13.30
2019-05-06T12:19:48.271Z,12.80
2019-05-06T12:25:52.786Z,12.70
2019-05-06T12:31:59.812Z,12.90
2019-05-06T12:38:11.370Z,13.60
2019-05-06T12:44:09.533Z,14.00
2019-05-06T12:50:16.936Z,13.70
2019-05-06T12:56:20.723Z,13.20
2019-05-06T13:02:23.765Z,13.00
2019-05-06T13:08:32.685Z,13.10
2019-05-06T13:14:32.939Z,13.60
2019-05-06T13:20:36.339Z,13.60
2019-05-06T13:26:38.629Z,13.40
2019-05-06T13:32:45.883Z,12.90
2019-05-06T13:38:48.197Z,12.60
2019-05-06T13:44:50.715Z,12.50
2019-05-06T13:50:56.710Z,12.80
2019-05-06T13:56:58.996Z,13.80
2019-05-06T14:03:02.577Z,14.20
2019-05-06T14:09:06.379Z,14.00
2019-05-06T14:15:12.443Z,13.70
2019-05-06T14:21:15.197Z,13.40
2019-05-06T14:27:22.101Z,13.10
2019-05-06T14:33:27.471Z,13.30
2019-05-06T14:39:49.026Z,14.10
2019-05-06T14:45:37.791Z,14.40
2019-05-06T14:51:42.608Z,14.40
2019-05-06T14:57:46.428Z,14.20
2019-05-06T15:03:48.985Z,13.90
2019-05-06T15:10:02.470Z,12.80
2019-05-06T15:15:58.528Z,12.50
2019-05-06T15:22:02.229Z,12.30
2019-05-06T15:28:07.529Z,12.20
2019-05-06T15:34:14.593Z,12.30
2019-05-06T15:40:31.017Z,12.20
2019-05-06T15:46:22.859Z,12.10
2019-05-06T15:52:26.207Z,12.20
2019-05-06T15:58:29.380Z,12.40
2019-05-06T16:04:32.827Z,12.80
2019-05-06T16:10:51.206Z,13.10
2019-05-06T16:16:42.989Z,13.50
2019-05-06T16:22:47.345Z,13.40
2019-05-06T16:28:49.785Z,13.10
2019-05-06T16:34:53.113Z,12.90
2019-05-06T16:41:09.454Z,12.90
2019-05-06T16:47:02.705Z,12.70
2019-05-06T16:53:05.383Z,12.60
2019-05-06T16:59:27.370Z,12.50
2019-05-06T17:05:33.648Z,12.30
2019-05-06T17:11:35.717Z,12.30
2019-05-06T17:17:43.198Z,12.30
2019-05-06T17:23:42.420Z,12.30
2019-05-06T17:29:47.850Z,12.30
2019-05-06T17:35:52.038Z,12.20
2019-05-06T17:41:55.152Z,11.80
2019-05-06T17:48:07.360Z,11.30
2019-05-06T17:54:12.356Z,10.90
2019-05-06T18:00:15.885Z,10.60
2019-05-06T18:06:19.557Z,10.40
2019-05-06T18:12:23.385Z,10.20
2019-05-06T18:18:28.968Z,10.20
2019-05-06T18:24:33.072Z,10.00
2019-05-06T18:30:39.107Z,9.90
2019-05-06T18:36:43.171Z,9.90
2019-05-06T18:42:47.246Z,9.80
2019-05-06T18:48:54.144Z,9.80
2019-05-06T18:55:00.799Z,9.70
2019-05-06T19:01:06.790Z,9.70
2019-05-06T19:07:14.497Z,9.60
2019-05-06T19:13:14.333Z,9.60
2019-05-06T19:19:16.861Z,9.50
2019-05-06T19:25:22.676Z,9.50
2019-05-06T19:31:25.625Z,9.50
2019-05-06T19:37:29.270Z,9.50
2019-05-06T19:43:35.127Z,9.50
2019-05-06T19:49:38.294Z,9.50
2019-05-06T19:55:46.648Z,9.40
2019-05-06T20:01:47.442Z,9.40
2019-05-06T20:07:55.427Z,9.40
2019-05-06T20:13:59.294Z,9.30
2019-05-06T20:20:02.888Z,9.30
2019-05-06T20:26:08.242Z,9.30
2019-05-06T20:32:12.222Z,9.30
2019-05-06T20:38:16.129Z,9.20
2019-05-06T20:44:18.768Z,9.20
2019-05-06T20:50:22.528Z,9.10
2019-05-06T20:56:35.407Z,8.90
2019-05-06T21:02:39.517Z,8.80
2019-05-06T21:08:42.224Z,8.60
2019-05-06T21:14:46.129Z,8.50
2019-05-06T21:20:48.632Z,8.40
2019-05-06T21:26:53.306Z,8.30
2019-05-06T21:32:55.804Z,8.20
2019-05-06T21:38:58.971Z,8.20
2019-05-06T21:45:03.225Z,8.20
2019-05-06T21:51:05.772Z,8.10
2019-05-06T21:57:12.125Z,8.10
2019-05-06T22:03:13.462Z,8.10
2019-05-06T22:09:18.748Z,8.00
2019-05-06T22:57:52.917Z,8.00
2019-05-06T23:03:55.289Z,8.00
2019-05-06T23:09:59.106Z,8.00
2019-05-06T23:16:02.090Z,8.00
2019-05-06T23:22:06.453Z,8.00
2019-05-06T23:28:16.163Z,8.10
2019-05-06T23:34:18.515Z,8.00
2019-05-06T23:40:57.592Z,8.00
2019-05-06T23:47:36.546Z,8.10
2019-05-06T23:54:15.017Z,8.00
